sensor_id;sensor_type;location;lat;lon;timestamp;P1;durP1;ratioP1;P2;durP2;ratioP2
21420;SDS011;10871;50.144;8.428;2023-06-22T00:02:22;8.43;;;7.60;;
21420;SDS011;10871;50.144;8.428;2023-06-22T00:04:48;9.35;;;8.43;;
21420;SDS011;10871;50.144;8.428;2023-06-22T00:07:15;10.43;;;8.13;;
21420;SDS011;10871;50.144;8.428;2023-06-22T00:09:41;11.30;;;8.32;;
21420;SDS011;10871;50.144;8.428;2023-06-22T00:12:07;9.90;;;8.57;;
21420;SDS011;10871;50.144;8.428;2023-06-22T00:14:34;9.70;;;8.25;;
21420;SDS011;10871;50.144;8.428;2023-06-22T00:17:00;9.80;;;8.15;;
21420;SDS011;10871;50.144;8.428;2023-06-22T00:19:27;9.57;;;8.57;;
21420;SDS011;10871;50.144;8.428;2023-06-22T00:21:53;10.60;;;8.65;;
21420;SDS011;10871;50.144;8.428;2023-06-22T00:24:20;11.77;;;8.68;;
21420;SDS011;10871;50.144;8.428;2023-06-22T00:26:47;10.75;;;8.40;;
21420;SDS011;10871;50.144;8.428;2023-06-22T00:29:14;8.90;;;8.00;;
21420;SDS011;10871;50.144;8.428;2023-06-22T00:31:41;10.43;;;8.18;;
21420;SDS011;10871;50.144;8.428;2023-06-22T00:34:08;9.98;;;8.75;;
21420;SDS011;10871;50.144;8.428;2023-06-22T00:36:35;10.93;;;8.20;;
21420;SDS011;10871;50.144;8.428;2023-06-22T00:39:02;9.23;;;8.32;;
21420;SDS011;10871;50.144;8.428;2023-06-22T00:41:29;9.98;;;7.85;;
21420;SDS011;10871;50.144;8.428;2023-06-22T00:43:56;8.30;;;7.55;;
21420;SDS011;10871;50.144;8.428;2023-06-22T00:46:23;9.40;;;7.97;;
21420;SDS011;10871;50.144;8.428;2023-06-22T00:48:50;9.13;;;8.23;;
21420;SDS011;10871;50.144;8.428;2023-06-22T00:51:16;8.75;;;7.93;;
21420;SDS011;10871;50.144;8.428;2023-06-22T00:53:44;8.38;;;7.57;;
21420;SDS011;10871;50.144;8.428;2023-06-22T00:56:10;9.05;;;8.15;;
21420;SDS011;10871;50.144;8.428;2023-06-22T00:58:39;10.52;;;8.20;;
21420;SDS011;10871;50.144;8.428;2023-06-22T01:01:08;9.50;;;7.90;;
21420;SDS011;10871;50.144;8.428;2023-06-22T01:03:35;8.63;;;7.82;;
21420;SDS011;10871;50.144;8.428;2023-06-22T01:06:07;11.43;;;8.30;;
21420;SDS011;10871;50.144;8.428;2023-06-22T01:08:46;11.15;;;8.95;;
21420;SDS011;10871;50.144;8.428;2023-06-22T01:11:18;8.57;;;7.72;;
21420;SDS011;10871;50.144;8.428;2023-06-22T01:13:51;11.85;;;9.25;;
21420;SDS011;10871;50.144;8.428;2023-06-22T01:18:48;11.50;;;9.55;;
21420;SDS011;10871;50.144;8.428;2023-06-22T01:21:18;10.52;;;9.35;;
21420;SDS011;10871;50.144;8.428;2023-06-22T01:26:18;10.25;;;8.48;;
21420;SDS011;10871;50.144;8.428;2023-06-22T01:28:47;11.27;;;9.10;;
21420;SDS011;10871;50.144;8.428;2023-06-22T01:31:16;11.10;;;9.07;;
21420;SDS011;10871;50.144;8.428;2023-06-22T01:33:43;12.48;;;9.18;;
21420;SDS011;10871;50.144;8.428;2023-06-22T01:36:12;9.23;;;8.30;;
21420;SDS011;10871;50.144;8.428;2023-06-22T01:38:39;11.02;;;9.77;;
21420;SDS011;10871;50.144;8.428;2023-06-22T01:41:05;10.55;;;9.45;;
21420;SDS011;10871;50.144;8.428;2023-06-22T01:43:32;11.15;;;9.48;;
21420;SDS011;10871;50.144;8.428;2023-06-22T01:46:01;13.40;;;9.82;;
21420;SDS011;10871;50.144;8.428;2023-06-22T01:48:27;10.35;;;9.35;;
21420;SDS011;10871;50.144;8.428;2023-06-22T01:50:55;13.07;;;10.07;;
21420;SDS011;10871;50.144;8.428;2023-06-22T01:53:22;11.23;;;10.05;;
21420;SDS011;10871;50.144;8.428;2023-06-22T01:55:50;12.63;;;10.75;;
21420;SDS011;10871;50.144;8.428;2023-06-22T01:58:17;12.77;;;11.57;;
21420;SDS011;10871;50.144;8.428;2023-06-22T02:00:51;12.55;;;9.85;;
21420;SDS011;10871;50.144;8.428;2023-06-22T02:03:23;14.95;;;11.95;;
21420;SDS011;10871;50.144;8.428;2023-06-22T02:05:52;14.80;;;10.50;;
21420;SDS011;10871;50.144;8.428;2023-06-22T02:08:23;13.05;;;11.57;;
21420;SDS011;10871;50.144;8.428;2023-06-22T02:10:50;12.80;;;11.50;;
21420;SDS011;10871;50.144;8.428;2023-06-22T02:13:19;14.98;;;13.40;;
21420;SDS011;10871;50.144;8.428;2023-06-22T02:15:46;12.23;;;11.02;;
21420;SDS011;10871;50.144;8.428;2023-06-22T02:18:13;12.70;;;11.20;;
21420;SDS011;10871;50.144;8.428;2023-06-22T02:20:39;11.82;;;10.57;;
21420;SDS011;10871;50.144;8.428;2023-06-22T02:23:06;13.05;;;11.75;;
21420;SDS011;10871;50.144;8.428;2023-06-22T02:25:34;12.32;;;11.02;;
21420;SDS011;10871;50.144;8.428;2023-06-22T02:28:01;13.02;;;11.73;;
21420;SDS011;10871;50.144;8.428;2023-06-22T02:30:28;13.05;;;11.65;;
21420;SDS011;10871;50.144;8.428;2023-06-22T02:32:55;12.40;;;11.18;;
21420;SDS011;10871;50.144;8.428;2023-06-22T02:35:25;12.82;;;11.63;;
21420;SDS011;10871;50.144;8.428;2023-06-22T02:37:52;12.77;;;11.48;;
21420;SDS011;10871;50.144;8.428;2023-06-22T02:40:18;13.82;;;12.15;;
21420;SDS011;10871;50.144;8.428;2023-06-22T02:42:45;13.05;;;11.48;;
21420;SDS011;10871;50.144;8.428;2023-06-22T02:45:11;14.80;;;12.65;;
21420;SDS011;10871;50.144;8.428;2023-06-22T02:47:37;13.38;;;11.98;;
21420;SDS011;10871;50.144;8.428;2023-06-22T02:50:04;13.10;;;11.77;;
21420;SDS011;10871;50.144;8.428;2023-06-22T02:52:33;14.23;;;12.30;;
21420;SDS011;10871;50.144;8.428;2023-06-22T02:55:01;14.18;;;12.57;;
21420;SDS011;10871;50.144;8.428;2023-06-22T02:57:28;13.48;;;12.18;;
21420;SDS011;10871;50.144;8.428;2023-06-22T02:59:54;14.05;;;12.70;;
21420;SDS011;10871;50.144;8.428;2023-06-22T03:02:21;16.63;;;12.50;;
21420;SDS011;10871;50.144;8.428;2023-06-22T03:04:48;14.35;;;12.95;;
21420;SDS011;10871;50.144;8.428;2023-06-22T03:07:15;14.20;;;12.77;;
21420;SDS011;10871;50.144;8.428;2023-06-22T03:09:44;13.25;;;12.02;;
21420;SDS011;10871;50.144;8.428;2023-06-22T03:12:10;13.10;;;11.82;;
21420;SDS011;10871;50.144;8.428;2023-06-22T03:14:55;13.15;;;11.85;;
21420;SDS011;10871;50.144;8.428;2023-06-22T03:17:21;14.30;;;12.45;;
21420;SDS011;10871;50.144;8.428;2023-06-22T03:19:48;14.10;;;11.90;;
21420;SDS011;10871;50.144;8.428;2023-06-22T03:22:14;13.75;;;12.35;;
21420;SDS011;10871;50.144;8.428;2023-06-22T03:24:41;15.25;;;12.35;;
21420;SDS011;10871;50.144;8.428;2023-06-22T03:27:07;14.30;;;12.90;;
21420;SDS011;10871;50.144;8.428;2023-06-22T03:29:34;13.50;;;12.20;;
21420;SDS011;10871;50.144;8.428;2023-06-22T03:32:00;14.93;;;11.82;;
21420;SDS011;10871;50.144;8.428;2023-06-22T03:34:27;15.25;;;13.73;;
21420;SDS011;10871;50.144;8.428;2023-06-22T03:36:53;14.63;;;13.10;;
21420;SDS011;10871;50.144;8.428;2023-06-22T03:39:20;15.15;;;13.65;;
21420;SDS011;10871;50.144;8.428;2023-06-22T03:41:47;16.08;;;13.80;;
21420;SDS011;10871;50.144;8.428;2023-06-22T03:44:13;15.82;;;13.60;;
21420;SDS011;10871;50.144;8.428;2023-06-22T03:46:41;14.82;;;13.32;;
21420;SDS011;10871;50.144;8.428;2023-06-22T03:49:07;15.15;;;13.23;;
21420;SDS011;10871;50.144;8.428;2023-06-22T03:51:33;13.98;;;12.57;;
21420;SDS011;10871;50.144;8.428;2023-06-22T03:54:00;13.35;;;11.95;;
21420;SDS011;10871;50.144;8.428;2023-06-22T03:56:26;14.75;;;13.23;;
21420;SDS011;10871;50.144;8.428;2023-06-22T03:58:53;14.48;;;13.00;;
21420;SDS011;10871;50.144;8.428;2023-06-22T04:01:19;14.57;;;13.18;;
21420;SDS011;10871;50.144;8.428;2023-06-22T04:03:45;13.70;;;12.30;;
21420;SDS011;10871;50.144;8.428;2023-06-22T04:06:15;13.98;;;12.63;;
21420;SDS011;10871;50.144;8.428;2023-06-22T04:08:41;14.60;;;13.20;;
21420;SDS011;10871;50.144;8.428;2023-06-22T04:11:08;15.75;;;14.18;;
21420;SDS011;10871;50.144;8.428;2023-06-22T04:13:34;14.05;;;12.52;;
21420;SDS011;10871;50.144;8.428;2023-06-22T04:16:00;15.13;;;13.57;;
21420;SDS011;10871;50.144;8.428;2023-06-22T04:18:27;15.38;;;13.80;;
21420;SDS011;10871;50.144;8.428;2023-06-22T04:20:53;14.05;;;12.65;;
21420;SDS011;10871;50.144;8.428;2023-06-22T04:23:20;15.63;;;13.95;;
21420;SDS011;10871;50.144;8.428;2023-06-22T04:25:46;15.20;;;13.70;;
21420;SDS011;10871;50.144;8.428;2023-06-22T04:28:12;15.73;;;13.93;;
21420;SDS011;10871;50.144;8.428;2023-06-22T04:30:39;14.00;;;12.70;;
21420;SDS011;10871;50.144;8.428;2023-06-22T04:33:17;14.68;;;12.25;;
21420;SDS011;10871;50.144;8.428;2023-06-22T04:35:46;13.93;;;12.40;;
21420;SDS011;10871;50.144;8.428;2023-06-22T04:38:13;14.10;;;12.63;;
21420;SDS011;10871;50.144;8.428;2023-06-22T04:40:39;13.75;;;12.35;;
21420;SDS011;10871;50.144;8.428;2023-06-22T04:43:06;13.80;;;12.27;;
21420;SDS011;10871;50.144;8.428;2023-06-22T04:45:33;15.40;;;12.63;;
21420;SDS011;10871;50.144;8.428;2023-06-22T04:47:59;14.88;;;12.18;;
21420;SDS011;10871;50.144;8.428;2023-06-22T04:50:25;15.20;;;12.70;;
21420;SDS011;10871;50.144;8.428;2023-06-22T04:52:52;12.85;;;11.57;;
21420;SDS011;10871;50.144;8.428;2023-06-22T04:55:19;12.52;;;11.23;;
21420;SDS011;10871;50.144;8.428;2023-06-22T04:57:46;13.13;;;11.65;;
21420;SDS011;10871;50.144;8.428;2023-06-22T05:00:19;13.30;;;12.00;;
21420;SDS011;10871;50.144;8.428;2023-06-22T05:02:46;12.90;;;11.43;;
21420;SDS011;10871;50.144;8.428;2023-06-22T05:05:13;12.80;;;11.50;;
21420;SDS011;10871;50.144;8.428;2023-06-22T05:07:41;13.27;;;11.98;;
21420;SDS011;10871;50.144;8.428;2023-06-22T05:10:10;12.77;;;11.50;;
21420;SDS011;10871;50.144;8.428;2023-06-22T05:12:37;13.73;;;11.85;;
21420;SDS011;10871;50.144;8.428;2023-06-22T05:15:04;15.02;;;12.73;;
21420;SDS011;10871;50.144;8.428;2023-06-22T05:17:31;16.17;;;11.02;;
21420;SDS011;10871;50.144;8.428;2023-06-22T05:19:57;13.27;;;11.57;;
21420;SDS011;10871;50.144;8.428;2023-06-22T05:22:23;14.30;;;11.75;;
21420;SDS011;10871;50.144;8.428;2023-06-22T05:24:50;13.13;;;11.50;;
21420;SDS011;10871;50.144;8.428;2023-06-22T05:27:16;13.95;;;11.50;;
21420;SDS011;10871;50.144;8.428;2023-06-22T05:29:42;15.25;;;11.30;;
21420;SDS011;10871;50.144;8.428;2023-06-22T05:32:26;13.30;;;11.90;;
21420;SDS011;10871;50.144;8.428;2023-06-22T05:35:10;12.57;;;11.32;;
21420;SDS011;10871;50.144;8.428;2023-06-22T05:37:36;11.50;;;10.30;;
21420;SDS011;10871;50.144;8.428;2023-06-22T05:40:03;12.40;;;10.95;;
21420;SDS011;10871;50.144;8.428;2023-06-22T05:42:30;12.25;;;11.02;;
21420;SDS011;10871;50.144;8.428;2023-06-22T05:44:56;11.80;;;10.57;;
21420;SDS011;10871;50.144;8.428;2023-06-22T05:47:24;11.80;;;10.68;;
21420;SDS011;10871;50.144;8.428;2023-06-22T05:49:51;11.38;;;10.27;;
21420;SDS011;10871;50.144;8.428;2023-06-22T05:52:17;11.80;;;10.60;;
21420;SDS011;10871;50.144;8.428;2023-06-22T05:54:44;11.45;;;10.25;;
21420;SDS011;10871;50.144;8.428;2023-06-22T05:57:10;12.45;;;10.93;;
21420;SDS011;10871;50.144;8.428;2023-06-22T05:59:36;11.65;;;10.43;;
21420;SDS011;10871;50.144;8.428;2023-06-22T06:02:03;10.85;;;9.75;;
21420;SDS011;10871;50.144;8.428;2023-06-22T06:04:29;10.80;;;9.70;;
21420;SDS011;10871;50.144;8.428;2023-06-22T06:06:56;12.68;;;10.20;;
21420;SDS011;10871;50.144;8.428;2023-06-22T06:09:23;10.43;;;9.38;;
21420;SDS011;10871;50.144;8.428;2023-06-22T06:11:49;11.30;;;9.82;;
21420;SDS011;10871;50.144;8.428;2023-06-22T06:14:15;11.75;;;10.15;;
21420;SDS011;10871;50.144;8.428;2023-06-22T06:16:43;12.10;;;10.40;;
21420;SDS011;10871;50.144;8.428;2023-06-22T06:19:09;10.77;;;9.32;;
21420;SDS011;10871;50.144;8.428;2023-06-22T06:21:35;10.80;;;9.80;;
21420;SDS011;10871;50.144;8.428;2023-06-22T06:24:02;10.73;;;9.57;;
21420;SDS011;10871;50.144;8.428;2023-06-22T06:26:28;11.45;;;9.70;;
21420;SDS011;10871;50.144;8.428;2023-06-22T06:28:56;10.70;;;8.73;;
21420;SDS011;10871;50.144;8.428;2023-06-22T06:31:23;10.63;;;9.63;;
21420;SDS011;10871;50.144;8.428;2023-06-22T06:33:50;11.30;;;9.73;;
21420;SDS011;10871;50.144;8.428;2023-06-22T06:36:16;12.45;;;9.88;;
21420;SDS011;10871;50.144;8.428;2023-06-22T06:38:43;10.20;;;9.15;;
21420;SDS011;10871;50.144;8.428;2023-06-22T06:41:09;11.20;;;10.00;;
21420;SDS011;10871;50.144;8.428;2023-06-22T06:43:35;11.40;;;9.70;;
21420;SDS011;10871;50.144;8.428;2023-06-22T06:46:02;11.00;;;9.90;;
21420;SDS011;10871;50.144;8.428;2023-06-22T06:48:29;10.75;;;9.57;;
21420;SDS011;10871;50.144;8.428;2023-06-22T06:50:55;9.93;;;9.02;;
21420;SDS011;10871;50.144;8.428;2023-06-22T06:53:22;12.88;;;9.30;;
21420;SDS011;10871;50.144;8.428;2023-06-22T06:55:48;10.30;;;9.25;;
21420;SDS011;10871;50.144;8.428;2023-06-22T06:58:14;10.73;;;9.60;;
21420;SDS011;10871;50.144;8.428;2023-06-22T07:00:42;10.30;;;9.30;;
21420;SDS011;10871;50.144;8.428;2023-06-22T07:03:09;11.00;;;9.90;;
21420;SDS011;10871;50.144;8.428;2023-06-22T07:05:36;11.57;;;9.40;;
21420;SDS011;10871;50.144;8.428;2023-06-22T07:08:02;11.20;;;9.45;;
21420;SDS011;10871;50.144;8.428;2023-06-22T07:10:29;10.50;;;9.38;;
21420;SDS011;10871;50.144;8.428;2023-06-22T07:12:56;10.60;;;9.45;;
21420;SDS011;10871;50.144;8.428;2023-06-22T07:15:23;9.85;;;8.85;;
21420;SDS011;10871;50.144;8.428;2023-06-22T07:17:49;10.63;;;9.07;;
21420;SDS011;10871;50.144;8.428;2023-06-22T07:20:16;11.55;;;9.07;;
21420;SDS011;10871;50.144;8.428;2023-06-22T07:22:43;10.50;;;9.38;;
21420;SDS011;10871;50.144;8.428;2023-06-22T07:25:10;10.75;;;8.93;;
21420;SDS011;10871;50.144;8.428;2023-06-22T07:27:44;10.15;;;9.15;;
21420;SDS011;10871;50.144;8.428;2023-06-22T07:30:11;10.18;;;9.02;;
21420;SDS011;10871;50.144;8.428;2023-06-22T07:32:38;10.77;;;9.23;;
21420;SDS011;10871;50.144;8.428;2023-06-22T07:35:05;9.77;;;8.77;;
21420;SDS011;10871;50.144;8.428;2023-06-22T07:37:32;10.27;;;8.95;;
21420;SDS011;10871;50.144;8.428;2023-06-22T07:40:00;11.05;;;10.05;;
21420;SDS011;10871;50.144;8.428;2023-06-22T07:42:26;10.52;;;9.15;;
21420;SDS011;10871;50.144;8.428;2023-06-22T07:44:53;13.20;;;9.52;;
21420;SDS011;10871;50.144;8.428;2023-06-22T07:47:20;10.00;;;9.00;;
21420;SDS011;10871;50.144;8.428;2023-06-22T07:49:51;10.32;;;9.32;;
21420;SDS011;10871;50.144;8.428;2023-06-22T07:52:18;10.52;;;9.52;;
21420;SDS011;10871;50.144;8.428;2023-06-22T07:54:44;14.00;;;9.75;;
21420;SDS011;10871;50.144;8.428;2023-06-22T07:57:10;13.20;;;9.27;;
21420;SDS011;10871;50.144;8.428;2023-06-22T07:59:37;11.68;;;9.57;;
21420;SDS011;10871;50.144;8.428;2023-06-22T08:02:04;10.65;;;9.57;;
21420;SDS011;10871;50.144;8.428;2023-06-22T08:04:31;12.00;;;9.68;;
21420;SDS011;10871;50.144;8.428;2023-06-22T08:07:00;10.43;;;9.27;;
21420;SDS011;10871;50.144;8.428;2023-06-22T08:09:30;9.82;;;8.82;;
21420;SDS011;10871;50.144;8.428;2023-06-22T08:11:56;11.35;;;9.32;;
21420;SDS011;10871;50.144;8.428;2023-06-22T08:14:23;9.82;;;8.82;;
21420;SDS011;10871;50.144;8.428;2023-06-22T08:16:50;11.18;;;10.13;;
21420;SDS011;10871;50.144;8.428;2023-06-22T08:19:16;11.07;;;9.98;;
21420;SDS011;10871;50.144;8.428;2023-06-22T08:21:43;9.80;;;8.80;;
21420;SDS011;10871;50.144;8.428;2023-06-22T08:24:09;10.82;;;9.73;;
21420;SDS011;10871;50.144;8.428;2023-06-22T08:26:35;10.75;;;9.43;;
21420;SDS011;10871;50.144;8.428;2023-06-22T08:29:03;9.90;;;9.00;;
21420;SDS011;10871;50.144;8.428;2023-06-22T08:31:30;10.95;;;9.95;;
21420;SDS011;10871;50.144;8.428;2023-06-22T08:33:57;10.48;;;9.52;;
21420;SDS011;10871;50.144;8.428;2023-06-22T08:36:23;11.80;;;10.07;;
21420;SDS011;10871;50.144;8.428;2023-06-22T08:38:50;11.77;;;10.00;;
21420;SDS011;10871;50.144;8.428;2023-06-22T08:41:17;11.98;;;10.68;;
21420;SDS011;10871;50.144;8.428;2023-06-22T08:43:44;11.82;;;10.00;;
21420;SDS011;10871;50.144;8.428;2023-06-22T08:46:13;12.80;;;10.15;;
21420;SDS011;10871;50.144;8.428;2023-06-22T08:48:39;12.57;;;9.98;;
21420;SDS011;10871;50.144;8.428;2023-06-22T08:51:06;10.52;;;9.43;;
21420;SDS011;10871;50.144;8.428;2023-06-22T08:53:32;12.90;;;9.57;;
21420;SDS011;10871;50.144;8.428;2023-06-22T08:55:58;11.68;;;10.40;;
21420;SDS011;10871;50.144;8.428;2023-06-22T08:58:25;11.90;;;10.32;;
21420;SDS011;10871;50.144;8.428;2023-06-22T09:00:51;15.88;;;11.20;;
21420;SDS011;10871;50.144;8.428;2023-06-22T09:03:18;13.40;;;10.48;;
21420;SDS011;10871;50.144;8.428;2023-06-22T09:05:46;11.38;;;10.23;;
21420;SDS011;10871;50.144;8.428;2023-06-22T09:08:13;13.00;;;10.68;;
21420;SDS011;10871;50.144;8.428;2023-06-22T09:10:39;13.60;;;12.20;;
21420;SDS011;10871;50.144;8.428;2023-06-22T09:13:05;12.70;;;10.80;;
21420;SDS011;10871;50.144;8.428;2023-06-22T09:15:32;11.18;;;9.10;;
21420;SDS011;10871;50.144;8.428;2023-06-22T09:17:59;11.25;;;10.15;;
21420;SDS011;10871;50.144;8.428;2023-06-22T09:20:25;13.60;;;10.20;;
21420;SDS011;10871;50.144;8.428;2023-06-22T09:22:52;11.10;;;10.00;;
21420;SDS011;10871;50.144;8.428;2023-06-22T09:25:19;11.20;;;10.07;;
21420;SDS011;10871;50.144;8.428;2023-06-22T09:27:47;11.65;;;8.82;;
21420;SDS011;10871;50.144;8.428;2023-06-22T09:30:13;11.60;;;10.50;;
21420;SDS011;10871;50.144;8.428;2023-06-22T09:32:40;11.85;;;10.70;;
21420;SDS011;10871;50.144;8.428;2023-06-22T09:35:06;10.65;;;9.65;;
21420;SDS011;10871;50.144;8.428;2023-06-22T09:37:34;11.48;;;10.38;;
21420;SDS011;10871;50.144;8.428;2023-06-22T09:40:00;11.60;;;10.45;;
21420;SDS011;10871;50.144;8.428;2023-06-22T09:42:27;12.23;;;10.43;;
21420;SDS011;10871;50.144;8.428;2023-06-22T09:44:53;13.35;;;11.00;;
21420;SDS011;10871;50.144;8.428;2023-06-22T09:47:20;12.10;;;10.25;;
21420;SDS011;10871;50.144;8.428;2023-06-22T09:49:46;11.90;;;10.43;;
21420;SDS011;10871;50.144;8.428;2023-06-22T09:52:14;11.95;;;10.75;;
21420;SDS011;10871;50.144;8.428;2023-06-22T09:54:40;12.13;;;10.82;;
21420;SDS011;10871;50.144;8.428;2023-06-22T09:57:07;11.23;;;10.02;;
21420;SDS011;10871;50.144;8.428;2023-06-22T09:59:33;11.38;;;10.10;;
21420;SDS011;10871;50.144;8.428;2023-06-22T10:02:00;10.90;;;9.90;;
21420;SDS011;10871;50.144;8.428;2023-06-22T10:04:26;12.05;;;10.80;;
21420;SDS011;10871;50.144;8.428;2023-06-22T10:06:53;10.90;;;9.65;;
21420;SDS011;10871;50.144;8.428;2023-06-22T10:09:19;11.35;;;10.15;;
21420;SDS011;10871;50.144;8.428;2023-06-22T10:11:47;11.73;;;10.57;;
21420;SDS011;10871;50.144;8.428;2023-06-22T10:14:13;11.75;;;10.65;;
21420;SDS011;10871;50.144;8.428;2023-06-22T10:16:40;11.68;;;10.65;;
21420;SDS011;10871;50.144;8.428;2023-06-22T10:19:07;14.15;;;10.80;;
21420;SDS011;10871;50.144;8.428;2023-06-22T10:21:34;12.45;;;9.95;;
21420;SDS011;10871;50.144;8.428;2023-06-22T10:24:01;11.73;;;10.27;;
21420;SDS011;10871;50.144;8.428;2023-06-22T10:26:32;11.63;;;10.15;;
21420;SDS011;10871;50.144;8.428;2023-06-22T10:28:59;11.00;;;9.88;;
21420;SDS011;10871;50.144;8.428;2023-06-22T10:31:32;14.30;;;10.55;;
21420;SDS011;10871;50.144;8.428;2023-06-22T10:33:59;10.82;;;9.75;;
21420;SDS011;10871;50.144;8.428;2023-06-22T10:36:26;10.45;;;9.55;;
21420;SDS011;10871;50.144;8.428;2023-06-22T10:38:52;10.82;;;9.73;;
21420;SDS011;10871;50.144;8.428;2023-06-22T10:41:19;10.50;;;9.38;;
21420;SDS011;10871;50.144;8.428;2023-06-22T10:43:46;11.15;;;9.77;;
21420;SDS011;10871;50.144;8.428;2023-06-22T10:46:12;14.10;;;9.75;;
21420;SDS011;10871;50.144;8.428;2023-06-22T10:48:38;10.07;;;9.07;;
21420;SDS011;10871;50.144;8.428;2023-06-22T10:51:05;9.85;;;8.95;;
21420;SDS011;10871;50.144;8.428;2023-06-22T10:53:31;10.85;;;9.65;;
21420;SDS011;10871;50.144;8.428;2023-06-22T10:55:58;14.52;;;10.10;;
21420;SDS011;10871;50.144;8.428;2023-06-22T10:58:25;11.30;;;10.20;;
21420;SDS011;10871;50.144;8.428;2023-06-22T11:00:51;11.55;;;9.48;;
21420;SDS011;10871;50.144;8.428;2023-06-22T11:03:18;10.70;;;9.40;;
21420;SDS011;10871;50.144;8.428;2023-06-22T11:05:44;10.45;;;9.45;;
21420;SDS011;10871;50.144;8.428;2023-06-22T11:08:10;11.93;;;10.82;;
21420;SDS011;10871;50.144;8.428;2023-06-22T11:10:37;10.63;;;9.63;;
21420;SDS011;10871;50.144;8.428;2023-06-22T11:13:03;10.27;;;8.68;;
21420;SDS011;10871;50.144;8.428;2023-06-22T11:15:31;8.82;;;7.75;;
21420;SDS011;10871;50.144;8.428;2023-06-22T11:17:58;11.43;;;8.00;;
21420;SDS011;10871;50.144;8.428;2023-06-22T11:20:24;8.73;;;7.82;;
21420;SDS011;10871;50.144;8.428;2023-06-22T11:22:50;11.10;;;8.35;;
21420;SDS011;10871;50.144;8.428;2023-06-22T11:25:17;10.50;;;8.40;;
21420;SDS011;10871;50.144;8.428;2023-06-22T11:27:43;11.10;;;7.88;;
21420;SDS011;10871;50.144;8.428;2023-06-22T11:30:09;9.55;;;7.95;;
21420;SDS011;10871;50.144;8.428;2023-06-22T11:32:36;9.05;;;8.15;;
21420;SDS011;10871;50.144;8.428;2023-06-22T11:35:03;9.80;;;8.27;;
21420;SDS011;10871;50.144;8.428;2023-06-22T11:37:29;10.90;;;8.02;;
21420;SDS011;10871;50.144;8.428;2023-06-22T11:39:55;10.45;;;8.25;;
21420;SDS011;10871;50.144;8.428;2023-06-22T11:42:32;11.45;;;8.70;;
21420;SDS011;10871;50.144;8.428;2023-06-22T11:45:00;8.85;;;7.95;;
21420;SDS011;10871;50.144;8.428;2023-06-22T11:47:26;11.52;;;8.45;;
21420;SDS011;10871;50.144;8.428;2023-06-22T11:49:53;8.93;;;8.02;;
21420;SDS011;10871;50.144;8.428;2023-06-22T11:52:19;14.95;;;8.07;;
21420;SDS011;10871;50.144;8.428;2023-06-22T11:54:45;13.82;;;7.72;;
21420;SDS011;10871;50.144;8.428;2023-06-22T11:57:12;9.13;;;8.20;;
21420;SDS011;10871;50.144;8.428;2023-06-22T11:59:38;10.05;;;7.70;;
21420;SDS011;10871;50.144;8.428;2023-06-22T12:02:05;8.70;;;7.88;;
21420;SDS011;10871;50.144;8.428;2023-06-22T12:04:33;10.05;;;8.15;;
21420;SDS011;10871;50.144;8.428;2023-06-22T12:06:59;10.25;;;8.25;;
21420;SDS011;10871;50.144;8.428;2023-06-22T12:09:26;12.23;;;8.38;;
21420;SDS011;10871;50.144;8.428;2023-06-22T12:11:52;12.23;;;8.77;;
21420;SDS011;10871;50.144;8.428;2023-06-22T12:14:18;11.90;;;8.43;;
21420;SDS011;10871;50.144;8.428;2023-06-22T12:16:45;9.50;;;8.23;;
21420;SDS011;10871;50.144;8.428;2023-06-22T12:19:11;12.68;;;8.45;;
21420;SDS011;10871;50.144;8.428;2023-06-22T12:21:38;10.50;;;8.50;;
21420;SDS011;10871;50.144;8.428;2023-06-22T12:24:05;10.55;;;8.48;;
21420;SDS011;10871;50.144;8.428;2023-06-22T12:26:31;12.23;;;9.10;;
21420;SDS011;10871;50.144;8.428;2023-06-22T12:28:58;10.23;;;8.30;;
21420;SDS011;10871;50.144;8.428;2023-06-22T12:31:24;9.65;;;8.73;;
21420;SDS011;10871;50.144;8.428;2023-06-22T12:33:50;14.15;;;8.77;;
21420;SDS011;10871;50.144;8.428;2023-06-22T12:36:17;9.90;;;8.55;;
21420;SDS011;10871;50.144;8.428;2023-06-22T12:38:43;10.48;;;8.27;;
21420;SDS011;10871;50.144;8.428;2023-06-22T12:41:09;11.98;;;8.20;;
21420;SDS011;10871;50.144;8.428;2023-06-22T12:43:36;12.50;;;8.57;;
21420;SDS011;10871;50.144;8.428;2023-06-22T12:46:02;15.23;;;8.65;;
21420;SDS011;10871;50.144;8.428;2023-06-22T12:48:29;12.43;;;8.00;;
21420;SDS011;10871;50.144;8.428;2023-06-22T12:50:55;12.70;;;7.93;;
21420;SDS011;10871;50.144;8.428;2023-06-22T12:53:21;13.32;;;10.18;;
21420;SDS011;10871;50.144;8.428;2023-06-22T12:55:49;9.80;;;7.82;;
21420;SDS011;10871;50.144;8.428;2023-06-22T12:58:16;12.32;;;8.05;;
21420;SDS011;10871;50.144;8.428;2023-06-22T13:00:42;15.45;;;8.38;;
21420;SDS011;10871;50.144;8.428;2023-06-22T13:03:09;11.63;;;8.10;;
21420;SDS011;10871;50.144;8.428;2023-06-22T13:05:35;10.40;;;8.05;;
21420;SDS011;10871;50.144;8.428;2023-06-22T13:08:02;17.73;;;9.07;;
21420;SDS011;10871;50.144;8.428;2023-06-22T13:10:29;12.52;;;8.73;;
21420;SDS011;10871;50.144;8.428;2023-06-22T13:12:56;10.13;;;7.95;;
21420;SDS011;10871;50.144;8.428;2023-06-22T13:15:27;17.45;;;8.18;;
21420;SDS011;10871;50.144;8.428;2023-06-22T13:17:55;13.40;;;8.55;;
21420;SDS011;10871;50.144;8.428;2023-06-22T13:20:21;10.65;;;8.25;;
21420;SDS011;10871;50.144;8.428;2023-06-22T13:22:48;10.60;;;8.45;;
21420;SDS011;10871;50.144;8.428;2023-06-22T13:25:14;13.90;;;8.63;;
21420;SDS011;10871;50.144;8.428;2023-06-22T13:27:45;12.95;;;9.18;;
21420;SDS011;10871;50.144;8.428;2023-06-22T13:30:11;14.02;;;8.98;;
21420;SDS011;10871;50.144;8.428;2023-06-22T13:32:40;14.30;;;8.80;;
21420;SDS011;10871;50.144;8.428;2023-06-22T13:35:11;13.13;;;10.13;;
21420;SDS011;10871;50.144;8.428;2023-06-22T13:37:38;12.98;;;9.80;;
21420;SDS011;10871;50.144;8.428;2023-06-22T13:40:22;13.68;;;9.90;;
21420;SDS011;10871;50.144;8.428;2023-06-22T13:43:06;14.48;;;10.00;;
21420;SDS011;10871;50.144;8.428;2023-06-22T13:45:32;14.35;;;9.57;;
21420;SDS011;10871;50.144;8.428;2023-06-22T13:47:59;13.02;;;9.70;;
21420;SDS011;10871;50.144;8.428;2023-06-22T13:50:25;15.82;;;10.00;;
21420;SDS011;10871;50.144;8.428;2023-06-22T13:52:52;13.65;;;9.45;;
21420;SDS011;10871;50.144;8.428;2023-06-22T13:55:18;15.43;;;10.13;;
21420;SDS011;10871;50.144;8.428;2023-06-22T13:57:47;12.75;;;10.90;;
21420;SDS011;10871;50.144;8.428;2023-06-22T14:00:13;14.10;;;8.80;;
21420;SDS011;10871;50.144;8.428;2023-06-22T14:02:40;14.80;;;10.07;;
21420;SDS011;10871;50.144;8.428;2023-06-22T14:05:07;13.20;;;9.85;;
21420;SDS011;10871;50.144;8.428;2023-06-22T14:07:34;11.85;;;9.05;;
21420;SDS011;10871;50.144;8.428;2023-06-22T14:10:01;10.68;;;9.15;;
21420;SDS011;10871;50.144;8.428;2023-06-22T14:12:27;16.17;;;10.25;;
21420;SDS011;10871;50.144;8.428;2023-06-22T14:14:54;12.38;;;9.50;;
21420;SDS011;10871;50.144;8.428;2023-06-22T14:17:20;11.30;;;9.32;;
21420;SDS011;10871;50.144;8.428;2023-06-22T14:19:50;13.80;;;10.00;;
21420;SDS011;10871;50.144;8.428;2023-06-22T14:22:19;17.35;;;9.88;;
21420;SDS011;10871;50.144;8.428;2023-06-22T14:24:45;15.98;;;9.30;;
21420;SDS011;10871;50.144;8.428;2023-06-22T14:27:12;12.85;;;8.88;;
21420;SDS011;10871;50.144;8.428;2023-06-22T14:29:38;13.55;;;9.40;;
21420;SDS011;10871;50.144;8.428;2023-06-22T14:32:05;12.07;;;8.93;;
21420;SDS011;10871;50.144;8.428;2023-06-22T14:34:32;15.05;;;9.27;;
21420;SDS011;10871;50.144;8.428;2023-06-22T14:37:02;13.52;;;8.43;;